createdAt,value
2022-10-23T00:00:07.665Z,100.00
2022-10-23T00:02:35.694Z,100.00
2022-10-23T00:05:02.318Z,100.00
2022-10-23T00:09:55.417Z,100.00
2022-10-23T00:12:22.183Z,100.00
2022-10-23T00:14:48.716Z,100.00
2022-10-23T00:17:15.266Z,100.00
2022-10-23T00:19:43.095Z,100.00
2022-10-23T00:22:09.667Z,100.00
2022-10-23T00:24:36.170Z,100.00
2022-10-23T00:27:02.777Z,100.00
2022-10-23T00:29:29.311Z,100.00
2022-10-23T00:31:56.000Z,100.00
2022-10-23T00:34:22.547Z,100.00
2022-10-23T00:36:50.482Z,100.00
2022-10-23T00:39:17.019Z,100.00
2022-10-23T00:41:43.582Z,100.00
2022-10-23T00:44:31.076Z,100.00
2022-10-23T00:46:58.881Z,100.00
2022-10-23T00:49:25.715Z,100.00
2022-10-23T00:51:59.286Z,100.00
2022-10-23T00:54:29.467Z,100.00
2022-10-23T00:56:59.093Z,100.00
2022-10-23T00:59:25.669Z,100.00
2022-10-23T01:01:52.450Z,100.00
2022-10-23T01:04:19.342Z,100.00
2022-10-23T01:06:54.866Z,100.00
2022-10-23T01:09:29.355Z,100.00
2022-10-23T01:12:00.790Z,100.00
2022-10-23T01:14:37.509Z,100.00
2022-10-23T01:17:08.249Z,100.00
2022-10-23T01:19:50.980Z,100.00
2022-10-23T01:22:38.123Z,100.00
2022-10-23T01:25:20.150Z,100.00
2022-10-23T01:27:52.451Z,100.00
2022-10-23T01:30:19.170Z,100.00
2022-10-23T01:32:52.729Z,100.00
2022-10-23T01:35:24.116Z,100.00
2022-10-23T01:38:04.923Z,100.00
2022-10-23T01:40:37.524Z,100.00
2022-10-23T01:43:12.309Z,100.00
2022-10-23T01:45:42.312Z,100.00
2022-10-23T01:48:17.939Z,100.00
2022-10-23T01:50:46.431Z,100.00
2022-10-23T01:53:13.123Z,100.00
2022-10-23T01:58:22.831Z,100.00
2022-10-23T02:00:52.753Z,100.00
2022-10-23T02:03:20.625Z,100.00
2022-10-23T02:05:47.379Z,100.00
2022-10-23T02:08:14.106Z,100.00
2022-10-23T02:10:49.237Z,100.00
2022-10-23T02:13:22.251Z,100.00
2022-10-23T02:15:58.846Z,100.00
2022-10-23T02:18:34.084Z,100.00
2022-10-23T02:21:06.009Z,100.00
2022-10-23T02:23:36.344Z,100.00
2022-10-23T02:26:08.271Z,100.00
2022-10-23T02:28:40.163Z,100.00
2022-10-23T02:31:12.545Z,100.00
2022-10-23T02:33:40.294Z,100.00
2022-10-23T02:36:07.528Z,100.00
2022-10-23T02:38:36.710Z,100.00
2022-10-23T02:41:18.277Z,100.00
2022-10-23T02:43:54.644Z,100.00
2022-10-23T02:46:28.763Z,100.00
2022-10-23T02:49:03.565Z,100.00
2022-10-23T02:51:36.305Z,100.00
2022-10-23T02:54:08.256Z,100.00
2022-10-23T02:56:44.533Z,100.00
2022-10-23T02:59:20.343Z,100.00
2022-10-23T03:01:53.315Z,100.00
2022-10-23T03:04:23.737Z,100.00
2022-10-23T03:06:50.924Z,100.00
2022-10-23T03:09:18.018Z,100.00
2022-10-23T03:11:44.623Z,100.00
2022-10-23T03:14:12.645Z,100.00
2022-10-23T03:16:39.441Z,100.00
2022-10-23T03:19:07.364Z,100.00
2022-10-23T03:21:34.027Z,100.00
2022-10-23T03:24:02.567Z,100.00
2022-10-23T03:26:35.227Z,100.00
2022-10-23T03:29:01.884Z,100.00
2022-10-23T03:31:28.522Z,100.00
2022-10-23T03:33:59.580Z,100.00
2022-10-23T03:36:27.599Z,100.00
2022-10-23T03:38:54.181Z,100.00
2022-10-23T03:41:21.197Z,100.00
2022-10-23T03:43:47.750Z,100.00
2022-10-23T03:46:14.443Z,100.00
2022-10-23T03:48:40.986Z,100.00
2022-10-23T03:51:08.309Z,100.00
2022-10-23T03:53:36.254Z,100.00
2022-10-23T03:56:03.990Z,100.00
2022-10-23T03:58:30.624Z,100.00
2022-10-23T04:00:57.496Z,100.00
2022-10-23T04:03:24.223Z,100.00
2022-10-23T04:05:52.363Z,100.00
2022-10-23T04:08:21.324Z,100.00
2022-10-23T04:10:52.388Z,100.00
2022-10-23T04:13:24.662Z,100.00
2022-10-23T04:15:52.446Z,100.00
2022-10-23T04:18:19.128Z,100.00
2022-10-23T04:20:47.872Z,100.00
2022-10-23T04:23:14.574Z,100.00
2022-10-23T04:25:42.098Z,100.00
2022-10-23T04:28:10.118Z,100.00
2022-10-23T04:30:38.749Z,100.00
2022-10-23T04:33:05.860Z,100.00
2022-10-23T04:35:33.379Z,100.00
2022-10-23T04:37:59.941Z,100.00
2022-10-23T04:40:26.558Z,100.00
2022-10-23T04:42:54.536Z,100.00
2022-10-23T04:45:23.344Z,100.00
2022-10-23T04:47:49.915Z,100.00
2022-10-23T04:50:16.836Z,100.00
2022-10-23T04:53:01.985Z,100.00
2022-10-23T04:55:52.361Z,100.00
2022-10-23T04:58:34.462Z,100.00
2022-10-23T05:01:03.229Z,100.00
2022-10-23T05:03:29.866Z,100.00
2022-10-23T05:05:56.834Z,100.00
2022-10-23T05:08:42.883Z,100.00
2022-10-23T05:11:29.704Z,100.00
2022-10-23T05:13:56.336Z,100.00
2022-10-23T05:16:32.273Z,100.00
2022-10-23T05:18:59.663Z,100.00
2022-10-23T05:21:29.780Z,100.00
2022-10-23T05:26:26.623Z,100.00
2022-10-23T05:28:53.256Z,100.00
2022-10-23T05:31:22.787Z,100.00
2022-10-23T05:33:52.658Z,100.00
2022-10-23T05:36:22.228Z,100.00
2022-10-23T05:38:54.438Z,100.00
2022-10-23T05:41:21.589Z,100.00
2022-10-23T05:43:48.504Z,100.00
2022-10-23T05:46:33.618Z,100.00
2022-10-23T05:49:24.345Z,100.00
2022-10-23T05:52:13.736Z,100.00
2022-10-23T05:54:50.931Z,100.00
2022-10-23T05:57:40.202Z,100.00
2022-10-23T06:00:11.671Z,100.00
2022-10-23T06:02:41.098Z,100.00
2022-10-23T06:05:25.280Z,100.00
2022-10-23T06:08:09.644Z,100.00
2022-10-23T06:10:36.399Z,100.00
2022-10-23T06:13:05.730Z,100.00
2022-10-23T06:15:32.536Z,100.00
2022-10-23T06:18:05.386Z,100.00
2022-10-23T06:20:37.899Z,100.00
2022-10-23T06:23:11.739Z,100.00
2022-10-23T06:25:56.437Z,100.00
2022-10-23T06:28:32.044Z,100.00
2022-10-23T06:30:59.493Z,100.00
2022-10-23T06:33:26.349Z,100.00
2022-10-23T06:35:56.976Z,100.00
2022-10-23T06:38:23.761Z,100.00
2022-10-23T06:40:55.710Z,100.00
2022-10-23T06:43:30.421Z,100.00
2022-10-23T06:46:16.195Z,100.00
2022-10-23T06:49:01.578Z,100.00
2022-10-23T06:51:40.534Z,100.00
2022-10-23T06:54:11.971Z,100.00
2022-10-23T06:56:50.490Z,100.00
2022-10-23T06:59:21.594Z,100.00
2022-10-23T07:01:50.834Z,100.00
2022-10-23T07:04:17.887Z,100.00
2022-10-23T07:06:45.912Z,100.00
2022-10-23T07:09:12.784Z,100.00
2022-10-23T07:11:51.187Z,100.00
2022-10-23T07:14:19.898Z,100.00
2022-10-23T07:16:46.990Z,100.00
2022-10-23T07:19:13.627Z,100.00
2022-10-23T07:21:53.635Z,100.00
2022-10-23T07:24:46.261Z,100.00
2022-10-23T07:27:36.260Z,100.00
2022-10-23T07:30:03.843Z,100.00
2022-10-23T07:32:37.041Z,100.00
2022-10-23T07:35:22.423Z,100.00
2022-10-23T07:38:04.349Z,100.00
2022-10-23T07:40:34.910Z,100.00
2022-10-23T07:43:03.012Z,100.00
2022-10-23T07:45:30.219Z,100.00
2022-10-23T07:47:59.205Z,100.00
2022-10-23T07:50:33.645Z,100.00
2022-10-23T07:53:00.308Z,100.00
2022-10-23T07:55:37.749Z,100.00
2022-10-23T07:58:12.671Z,100.00
2022-10-23T08:00:43.416Z,100.00
2022-10-23T08:03:24.652Z,100.00
2022-10-23T08:05:52.907Z,100.00
2022-10-23T08:08:19.659Z,100.00
2022-10-23T08:10:52.185Z,100.00
2022-10-23T08:13:25.503Z,100.00
2022-10-23T08:15:58.899Z,100.00
2022-10-23T08:18:58.048Z,100.00
2022-10-23T08:21:24.705Z,100.00
2022-10-23T08:23:54.367Z,100.00
2022-10-23T08:26:22.807Z,100.00
2022-10-23T08:28:49.320Z,100.00
2022-10-23T08:31:18.178Z,100.00
2022-10-23T08:34:02.182Z,100.00
2022-10-23T08:36:29.349Z,100.00
2022-10-23T08:38:57.861Z,100.00
2022-10-23T08:41:31.270Z,100.00
2022-10-23T08:44:21.210Z,95.91
2022-10-23T08:46:55.233Z,97.02
2022-10-23T08:49:47.101Z,93.60
2022-10-23T08:52:20.242Z,94.45
2022-10-23T08:54:59.807Z,91.60
2022-10-23T08:57:33.669Z,89.98
2022-10-23T09:00:03.547Z,89.08
2022-10-23T09:02:33.723Z,87.25
2022-10-23T09:05:00.302Z,86.80
2022-10-23T09:07:39.446Z,85.79
2022-10-23T09:10:25.545Z,84.54
2022-10-23T09:12:56.956Z,82.95
2022-10-23T09:15:30.528Z,83.42
2022-10-23T09:18:00.289Z,81.83
2022-10-23T09:20:29.083Z,81.04
2022-10-23T09:22:58.960Z,80.67
2022-10-23T09:25:27.675Z,80.07
2022-10-23T09:28:00.154Z,77.98
2022-10-23T09:30:32.333Z,76.50
2022-10-23T09:32:59.660Z,74.10
2022-10-23T09:35:28.622Z,73.06
2022-10-23T09:37:56.269Z,72.99
2022-10-23T09:40:30.260Z,71.80
2022-10-23T09:43:00.449Z,71.75
2022-10-23T09:45:31.185Z,72.56
2022-10-23T09:48:12.403Z,70.35
2022-10-23T09:50:47.581Z,71.53
2022-10-23T09:53:17.227Z,71.64
2022-10-23T09:55:51.557Z,71.93
2022-10-23T09:58:24.838Z,70.97
2022-10-23T10:00:53.443Z,69.50
2022-10-23T10:03:37.344Z,69.84
2022-10-23T10:06:22.238Z,70.75
2022-10-23T10:08:51.851Z,69.63
2022-10-23T10:11:25.737Z,68.98
2022-10-23T10:14:18.030Z,69.89
2022-10-23T10:16:50.549Z,68.14
2022-10-23T10:19:35.750Z,67.19
2022-10-23T10:22:09.315Z,69.38
2022-10-23T10:24:41.937Z,68.40
2022-10-23T10:27:20.616Z,69.41
2022-10-23T10:30:02.951Z,68.35
2022-10-23T10:32:39.857Z,68.01
2022-10-23T10:35:22.658Z,67.65
2022-10-23T10:38:02.239Z,66.52
2022-10-23T10:40:33.195Z,66.55
2022-10-23T10:43:31.406Z,67.61
2022-10-23T10:46:03.625Z,67.57
2022-10-23T10:48:46.422Z,67.53
2022-10-23T10:51:39.746Z,68.58
2022-10-23T10:54:28.466Z,68.98
2022-10-23T10:56:56.898Z,69.23
2022-10-23T10:59:26.584Z,68.69
2022-10-23T11:02:00.242Z,69.12
2022-10-23T11:04:34.622Z,68.36
2022-10-23T11:07:07.175Z,68.45
2022-10-23T11:09:33.925Z,68.55
2022-10-23T11:12:00.450Z,68.82
2022-10-23T11:14:29.575Z,70.05
2022-10-23T11:17:05.489Z,69.71
2022-10-23T11:19:37.840Z,68.81
2022-10-23T11:22:10.639Z,69.18
2022-10-23T11:25:08.348Z,70.71
2022-10-23T11:27:48.725Z,70.90
2022-10-23T11:30:23.624Z,72.97
2022-10-23T11:33:30.375Z,73.59
2022-10-23T11:36:05.777Z,75.16
2022-10-23T11:38:35.114Z,74.74
2022-10-23T11:41:05.164Z,73.74
2022-10-23T11:43:34.437Z,74.01
2022-10-23T11:46:12.731Z,73.78
2022-10-23T11:48:41.957Z,74.60
2022-10-23T11:51:27.245Z,73.31
2022-10-23T11:54:05.633Z,70.43
2022-10-23T11:56:32.338Z,70.62
2022-10-23T11:59:17.442Z,70.57
2022-10-23T12:01:44.665Z,71.88
2022-10-23T12:04:22.352Z,72.28
2022-10-23T12:06:52.477Z,71.23
2022-10-23T12:09:29.796Z,70.30
2022-10-23T12:12:13.913Z,68.88
2022-10-23T12:14:42.408Z,67.56
2022-10-23T12:17:32.946Z,67.46
2022-10-23T12:20:21.084Z,67.27
2022-10-23T12:23:00.937Z,65.89
2022-10-23T12:25:37.400Z,65.62
2022-10-23T12:28:10.270Z,65.40
2022-10-23T12:30:45.413Z,64.91
2022-10-23T12:33:23.222Z,65.15
2022-10-23T12:36:11.990Z,64.55
2022-10-23T12:38:43.906Z,62.61
2022-10-23T12:41:14.245Z,63.96
2022-10-23T12:43:43.802Z,64.27
2022-10-23T12:46:28.273Z,63.95
2022-10-23T12:48:55.866Z,63.86
2022-10-23T12:51:25.559Z,62.92
2022-10-23T12:53:52.439Z,64.22
2022-10-23T12:56:19.340Z,63.60
2022-10-23T12:58:49.706Z,64.60
2022-10-23T13:01:24.750Z,64.44
2022-10-23T13:03:56.018Z,64.13
2022-10-23T13:06:24.775Z,63.70
2022-10-23T13:08:51.432Z,63.98
2022-10-23T13:11:36.901Z,64.00
2022-10-23T13:14:11.517Z,64.34
2022-10-23T13:16:38.158Z,64.12
2022-10-23T13:19:04.654Z,64.09
2022-10-23T13:21:32.908Z,64.20
2022-10-23T13:23:59.597Z,64.73
2022-10-23T13:26:32.065Z,65.27
2022-10-23T13:28:59.351Z,64.82
2022-10-23T13:31:33.301Z,64.70
2022-10-23T13:34:26.129Z,65.03
2022-10-23T13:36:58.523Z,65.44
2022-10-23T13:39:27.640Z,64.81
2022-10-23T13:41:54.296Z,65.34
2022-10-23T13:44:23.341Z,65.46
2022-10-23T13:46:50.558Z,65.58
2022-10-23T13:49:17.542Z,66.30
2022-10-23T13:51:49.075Z,65.76
2022-10-23T13:54:19.478Z,65.32
2022-10-23T13:56:46.523Z,66.64
2022-10-23T13:59:13.963Z,66.47
2022-10-23T14:01:41.191Z,65.30
2022-10-23T14:04:08.413Z,65.50
2022-10-23T14:06:35.462Z,65.83
2022-10-23T14:09:02.305Z,66.14
2022-10-23T14:11:30.211Z,67.12
2022-10-23T14:13:56.781Z,66.85
2022-10-23T14:16:23.499Z,66.26
2022-10-23T14:18:50.191Z,66.52
2022-10-23T14:21:18.612Z,66.64
2022-10-23T14:23:45.562Z,66.05
2022-10-23T14:26:14.261Z,65.97
2022-10-23T14:28:42.322Z,66.33
2022-10-23T14:31:11.087Z,66.76
2022-10-23T14:33:37.854Z,66.44
2022-10-23T14:36:04.876Z,67.57
2022-10-23T14:38:31.680Z,67.86
2022-10-23T14:40:58.251Z,68.76
2022-10-23T14:43:25.099Z,66.92
2022-10-23T14:45:53.177Z,67.77
2022-10-23T14:48:19.711Z,67.66
2022-10-23T14:50:47.946Z,67.57
2022-10-23T14:53:15.477Z,68.20
2022-10-23T14:55:42.159Z,68.81
2022-10-23T14:58:08.691Z,69.12
2022-10-23T15:00:35.251Z,69.36
2022-10-23T15:03:03.183Z,69.08
2022-10-23T15:05:29.701Z,68.29
2022-10-23T15:07:56.266Z,69.19
2022-10-23T15:10:22.819Z,70.15
2022-10-23T15:12:49.317Z,70.95
2022-10-23T15:15:15.966Z,71.76
2022-10-23T15:17:42.498Z,72.86
2022-10-23T15:20:10.934Z,73.36
2022-10-23T15:22:37.675Z,74.36
2022-10-23T15:25:05.192Z,74.68
2022-10-23T15:27:31.985Z,75.31
2022-10-23T15:29:58.502Z,76.42
2022-10-23T15:32:25.016Z,76.65
2022-10-23T15:34:51.560Z,77.08
2022-10-23T15:37:19.474Z,76.87
2022-10-23T15:39:46.019Z,77.74
2022-10-23T15:42:12.555Z,78.70
2022-10-23T15:44:40.416Z,79.58
2022-10-23T15:47:07.051Z,79.92
2022-10-23T15:49:33.635Z,80.79
2022-10-23T15:52:00.616Z,81.11
2022-10-23T15:54:31.922Z,81.34
2022-10-23T15:57:00.635Z,81.46
2022-10-23T15:59:28.705Z,82.00
2022-10-23T16:01:57.838Z,82.31
2022-10-23T16:04:24.831Z,82.42
2022-10-23T16:06:51.405Z,82.32
2022-10-23T16:09:18.018Z,82.84
2022-10-23T16:11:45.966Z,83.14
2022-10-23T16:14:14.852Z,83.30
2022-10-23T16:16:41.472Z,83.34
2022-10-23T16:19:10.108Z,83.41
2022-10-23T16:21:37.090Z,83.95
2022-10-23T16:24:06.105Z,84.38
2022-10-23T16:26:33.375Z,84.68
2022-10-23T16:29:04.785Z,85.02
2022-10-23T16:31:31.484Z,85.31
2022-10-23T16:33:58.807Z,85.56
2022-10-23T16:36:25.891Z,86.10
2022-10-23T16:39:13.250Z,86.55
2022-10-23T16:41:58.357Z,87.05
2022-10-23T16:44:34.231Z,87.63
2022-10-23T16:47:04.105Z,88.24
2022-10-23T16:49:30.730Z,88.47
2022-10-23T16:51:57.333Z,89.02
2022-10-23T16:54:23.842Z,89.44
2022-10-23T16:56:50.559Z,90.05
2022-10-23T16:59:17.161Z,90.69
2022-10-23T17:01:45.216Z,91.37
2022-10-23T17:04:11.866Z,91.80
2022-10-23T17:06:38.605Z,92.17
2022-10-23T17:09:05.834Z,92.85
2022-10-23T17:11:34.038Z,94.92
2022-10-23T17:14:02.828Z,96.96
2022-10-23T17:16:31.712Z,97.22
2022-10-23T17:19:00.485Z,98.43
2022-10-23T17:21:30.835Z,99.37
2022-10-23T17:23:57.457Z,99.48
2022-10-23T17:26:24.053Z,99.46
2022-10-23T17:28:50.917Z,100.00
2022-10-23T17:31:19.573Z,100.00
2022-10-23T17:33:47.698Z,100.00
2022-10-23T17:36:16.230Z,100.00
2022-10-23T17:38:43.394Z,100.00
2022-10-23T17:41:12.261Z,100.00
2022-10-23T17:43:39.398Z,100.00
2022-10-23T17:46:08.224Z,100.00
2022-10-23T17:48:35.260Z,100.00
2022-10-23T17:51:03.257Z,100.00
2022-10-23T17:53:31.455Z,100.00
2022-10-23T17:56:01.512Z,100.00
2022-10-23T17:58:28.059Z,100.00
2022-10-23T18:00:54.616Z,100.00
2022-10-23T18:03:21.118Z,100.00
2022-10-23T18:05:47.726Z,100.00
2022-10-23T18:08:15.342Z,100.00
2022-10-23T18:10:43.272Z,100.00
2022-10-23T18:13:09.823Z,100.00
2022-10-23T18:15:36.428Z,100.00
2022-10-23T18:18:03.620Z,100.00
2022-10-23T18:20:30.159Z,100.00
2022-10-23T18:22:56.662Z,100.00
2022-10-23T18:25:23.264Z,100.00
2022-10-23T18:27:51.179Z,100.00
2022-10-23T18:30:17.842Z,100.00
2022-10-23T18:32:44.612Z,100.00
2022-10-23T18:35:11.681Z,100.00
2022-10-23T18:37:41.595Z,100.00
2022-10-23T18:40:09.110Z,100.00
2022-10-23T18:42:35.678Z,100.00
2022-10-23T18:45:04.159Z,100.00
2022-10-23T18:47:30.673Z,100.00
2022-10-23T18:49:57.203Z,100.00
2022-10-23T18:52:23.711Z,100.00
2022-10-23T18:54:50.202Z,100.00
2022-10-23T18:57:16.724Z,100.00
2022-10-23T18:59:43.215Z,100.00
2022-10-23T19:02:12.083Z,100.00
2022-10-23T19:04:38.715Z,100.00
2022-10-23T19:07:05.270Z,100.00
2022-10-23T19:09:31.829Z,100.00
2022-10-23T19:11:58.366Z,100.00
2022-10-23T19:14:24.851Z,100.00
2022-10-23T19:16:59.151Z,100.00
2022-10-23T19:19:30.049Z,100.00
2022-10-23T19:21:57.353Z,100.00
2022-10-23T19:24:27.210Z,100.00
2022-10-23T19:26:54.377Z,100.00
2022-10-23T19:29:22.999Z,100.00
2022-10-23T19:31:50.236Z,100.00
2022-10-23T19:34:17.294Z,100.00
2022-10-23T19:36:45.338Z,100.00
2022-10-23T19:39:12.080Z,100.00
2022-10-23T19:41:38.636Z,100.00
2022-10-23T19:44:05.186Z,100.00
2022-10-23T19:46:31.932Z,100.00
2022-10-23T19:48:58.440Z,100.00
2022-10-23T19:51:25.155Z,100.00
2022-10-23T19:53:53.999Z,100.00
2022-10-23T19:56:20.626Z,100.00
2022-10-23T19:58:47.276Z,100.00
2022-10-23T20:01:16.000Z,100.00
2022-10-23T20:03:43.610Z,100.00
2022-10-23T20:06:11.761Z,100.00
2022-10-23T20:08:38.693Z,100.00
2022-10-23T20:11:07.465Z,100.00
2022-10-23T20:13:34.837Z,100.00
2022-10-23T20:16:01.563Z,100.00
2022-10-23T20:18:28.072Z,100.00
2022-10-23T20:20:54.644Z,100.00
2022-10-23T20:23:21.196Z,100.00
2022-10-23T20:25:47.861Z,100.00
2022-10-23T20:28:15.706Z,100.00
2022-10-23T20:30:42.948Z,100.00
2022-10-23T20:33:09.543Z,100.00
2022-10-23T20:35:40.131Z,100.00
2022-10-23T20:38:07.776Z,100.00
2022-10-23T20:40:34.332Z,100.00
2022-10-23T20:43:01.038Z,100.00
2022-10-23T20:45:28.923Z,100.00
2022-10-23T20:47:55.518Z,100.00
2022-10-23T20:50:22.040Z,100.00
2022-10-23T20:52:48.689Z,100.00
2022-10-23T20:55:15.321Z,100.00
2022-10-23T20:57:42.105Z,100.00
2022-10-23T21:00:10.021Z,100.00
2022-10-23T21:02:38.236Z,100.00
2022-10-23T21:05:05.724Z,100.00
2022-10-23T21:07:32.315Z,100.00
2022-10-23T21:09:58.820Z,100.00
2022-10-23T21:12:25.398Z,100.00
2022-10-23T21:14:52.897Z,100.00
2022-10-23T21:17:19.527Z,100.00
2022-10-23T21:19:47.564Z,100.00
2022-10-23T21:22:14.234Z,100.00
2022-10-23T21:24:40.756Z,100.00
2022-10-23T21:27:07.363Z,100.00
2022-10-23T21:29:33.987Z,100.00
2022-10-23T21:32:01.104Z,100.00
2022-10-23T21:34:28.669Z,100.00
2022-10-23T21:37:13.859Z,100.00
2022-10-23T21:39:41.259Z,100.00
2022-10-23T21:42:07.927Z,100.00
2022-10-23T21:44:34.480Z,100.00
2022-10-23T21:47:01.048Z,100.00
2022-10-23T21:49:27.740Z,100.00
2022-10-23T21:51:55.577Z,100.00
2022-10-23T21:54:22.122Z,100.00
2022-10-23T21:56:49.934Z,100.00
2022-10-23T21:59:18.975Z,100.00
2022-10-23T22:01:47.229Z,100.00
2022-10-23T22:04:15.911Z,100.00
2022-10-23T22:06:43.248Z,100.00
2022-10-23T22:09:13.355Z,100.00
2022-10-23T22:11:39.959Z,100.00
2022-10-23T22:14:06.637Z,100.00
2022-10-23T22:16:33.200Z,100.00
2022-10-23T22:18:59.744Z,100.00
2022-10-23T22:21:27.969Z,100.00
2022-10-23T22:23:56.252Z,100.00
2022-10-23T22:26:27.342Z,100.00
2022-10-23T22:28:55.740Z,100.00
2022-10-23T22:31:24.538Z,100.00
2022-10-23T22:33:52.297Z,100.00
2022-10-23T22:36:19.045Z,100.00
2022-10-23T22:38:45.633Z,100.00
2022-10-23T22:41:12.397Z,100.00
2022-10-23T22:43:40.639Z,100.00
2022-10-23T22:46:09.506Z,100.00
2022-10-23T22:48:36.805Z,100.00
2022-10-23T22:51:07.225Z,100.00
2022-10-23T22:53:35.769Z,100.00
2022-10-23T22:56:06.089Z,100.00
2022-10-23T22:58:32.833Z,100.00
2022-10-23T23:01:06.174Z,100.00
2022-10-23T23:03:35.337Z,100.00
2022-10-23T23:06:03.003Z,100.00
2022-10-23T23:08:29.626Z,100.00
2022-10-23T23:10:57.879Z,100.00
2022-10-23T23:13:25.490Z,100.00
2022-10-23T23:15:52.252Z,100.00
2022-10-23T23:18:20.997Z,100.00
2022-10-23T23:20:47.563Z,100.00
2022-10-23T23:23:14.569Z,100.00
2022-10-23T23:25:42.082Z,100.00
2022-10-23T23:28:08.751Z,100.00
2022-10-23T23:30:35.313Z,100.00
2022-10-23T23:33:01.902Z,100.00
2022-10-23T23:35:29.755Z,100.00
2022-10-23T23:37:56.338Z,100.00
2022-10-23T23:40:22.870Z,100.00
2022-10-23T23:42:49.400Z,100.00
2022-10-23T23:45:16.238Z,100.00
2022-10-23T23:47:43.330Z,100.00
2022-10-23T23:50:11.660Z,100.00
2022-10-23T23:52:39.537Z,100.00
2022-10-23T23:55:06.537Z,100.00
2022-10-23T23:57:33.041Z,100.00
2022-10-23T23:59:59.811Z,100.00
